Time;durP1;ratioP1;P1;durP2;ratioP2;P2;SDS_P1;SDS_P2;PMS_P1;PMS_P2;Temp;Humidity;BMP_temperature;BMP_pressure;BME280_temperature;BME280_humidity;BME280_pressure;Samples;Min_cycle;Max_cycle;Signal;HPM_P1;HPM_P2
2022/01/31 00:05:01;;;;;;;18.13;6.70;;;4.90;99.90;;;;;;10421027;28;20203;-81
2022/01/31 00:10:16;;;;;;;12.93;6.00;;;5.00;99.90;;;;;;10444993;28;20253;-81
2022/01/31 00:15:18;;;;;;;11.23;5.73;;;5.00;99.90;;;;;;10443835;28;20220;-80
2022/01/31 00:20:35;;;;;;;9.33;5.90;;;5.00;99.90;;;;;;10441094;28;20197;-78
2022/01/31 00:25:38;;;;;;;12.90;5.97;;;4.90;99.90;;;;;;10428393;28;20309;-78
2022/01/31 00:30:41;;;;;;;12.20;6.10;;;4.80;99.90;;;;;;10427366;28;20226;-78
2022/01/31 00:35:43;;;;;;;11.33;5.63;;;4.80;99.90;;;;;;10460224;28;20225;-77
2022/01/31 00:40:47;;;;;;;6.93;4.83;;;4.80;99.90;;;;;;10416115;28;20196;-78
2022/01/31 00:45:59;;;;;;;8.53;5.23;;;4.80;99.90;;;;;;10421786;28;20232;-76
2022/01/31 00:51:01;;;;;;;13.40;5.33;;;4.80;99.90;;;;;;10421475;28;20213;-80
2022/01/31 00:56:05;;;;;;;8.90;4.40;;;4.90;99.90;;;;;;10426834;28;20309;-80
2022/01/31 01:01:07;;;;;;;9.97;5.07;;;5.00;99.90;;;;;;10401968;28;20200;-80
2022/01/31 01:06:10;;;;;;;8.20;5.40;;;5.10;99.90;;;;;;10406080;28;20241;-80
2022/01/31 01:11:13;;;;;;;9.93;5.80;;;5.20;99.90;;;;;;10424810;28;20216;-80
2022/01/31 01:16:16;;;;;;;15.63;6.60;;;5.30;99.90;;;;;;10423071;28;20240;-80
2022/01/31 01:21:18;;;;;;;10.80;5.40;;;5.40;99.90;;;;;;10425991;28;20225;-78
2022/01/31 01:26:21;;;;;;;9.97;5.33;;;5.50;99.90;;;;;;10433952;28;20300;-79
2022/01/31 01:31:26;;;;;;;11.70;5.07;;;5.60;99.90;;;;;;10425597;28;20248;-78
2022/01/31 01:36:31;;;;;;;10.07;5.70;;;5.70;99.90;;;;;;10439278;28;20224;-78
2022/01/31 01:41:35;;;;;;;16.20;6.00;;;5.70;99.90;;;;;;10432064;28;20194;-78
2022/01/31 01:46:37;;;;;;;8.20;5.60;;;5.70;99.90;;;;;;10426883;28;20689;-77
2022/01/31 01:51:40;;;;;;;12.70;5.10;;;5.80;99.90;;;;;;10447359;28;20221;-78
2022/01/31 01:56:44;;;;;;;12.03;5.57;;;5.80;99.90;;;;;;10486768;22;20237;-81
2022/01/31 02:01:47;;;;;;;10.93;4.80;;;5.80;99.90;;;;;;10493618;28;20193;-80
2022/01/31 02:06:49;;;;;;;10.67;4.93;;;5.90;99.90;;;;;;10482359;28;20233;-81
2022/01/31 02:11:56;;;;;;;7.83;4.57;;;5.90;99.90;;;;;;10501953;28;20213;-81
2022/01/31 02:16:59;;;;;;;14.07;6.00;;;6.00;99.90;;;;;;10480574;28;20235;-81
2022/01/31 02:22:14;;;;;;;10.33;5.50;;;6.00;99.90;;;;;;10500134;28;20193;-81
2022/01/31 02:27:36;;;;;;;11.47;5.30;;;6.00;99.90;;;;;;10503131;28;20220;-81
2022/01/31 02:32:41;;;;;;;8.73;4.90;;;6.00;99.90;;;;;;10491810;28;20252;-81
2022/01/31 02:37:45;;;;;;;13.20;6.00;;;5.90;99.90;;;;;;10484315;28;20558;-81
2022/01/31 02:43:00;;;;;;;10.37;5.27;;;5.90;99.90;;;;;;10479420;28;20211;-82
2022/01/31 02:48:05;;;;;;;8.50;5.30;;;5.90;99.90;;;;;;10498098;28;20289;-81
2022/01/31 02:53:14;;;;;;;7.53;4.90;;;6.00;99.90;;;;;;10482351;28;20289;-80
2022/01/31 02:58:18;;;;;;;11.77;5.90;;;6.00;99.90;;;;;;10471186;28;20228;-81
2022/01/31 03:03:22;;;;;;;9.10;5.10;;;5.90;99.90;;;;;;10478797;28;20208;-81
2022/01/31 03:08:27;;;;;;;11.40;5.23;;;5.90;99.90;;;;;;10497274;28;20251;-81
2022/01/31 03:13:32;;;;;;;8.70;4.87;;;5.80;99.90;;;;;;10497700;28;20219;-81
2022/01/31 03:18:34;;;;;;;9.93;4.97;;;5.80;99.90;;;;;;10483351;28;20221;-81
2022/01/31 03:23:38;;;;;;;13.10;6.20;;;5.70;99.90;;;;;;10485531;28;20197;-81
2022/01/31 03:28:40;;;;;;;7.10;5.80;;;5.80;99.90;;;;;;10491033;28;20240;-81
2022/01/31 03:33:42;;;;;;;10.67;5.43;;;5.80;99.90;;;;;;10500560;28;20220;-81
2022/01/31 03:38:46;;;;;;;8.70;5.90;;;5.80;99.90;;;;;;10516861;28;20243;-81
2022/01/31 03:43:49;;;;;;;9.60;4.80;;;5.80;99.90;;;;;;10504628;28;20660;-81
2022/01/31 03:48:51;;;;;;;10.43;5.33;;;5.70;99.90;;;;;;10518843;28;20234;-81
2022/01/31 03:54:13;;;;;;;8.73;5.20;;;5.60;99.90;;;;;;10498492;28;20234;-80
2022/01/31 03:59:16;;;;;;;6.73;5.23;;;5.70;99.90;;;;;;10486605;28;20738;-81
2022/01/31 04:04:18;;;;;;;10.27;6.00;;;5.70;99.90;;;;;;10493181;28;20188;-82
2022/01/31 04:09:22;;;;;;;8.73;5.60;;;5.80;99.90;;;;;;10498182;28;20365;-81
2022/01/31 04:14:26;;;;;;;12.43;5.67;;;5.90;99.90;;;;;;10507193;28;20641;-82
2022/01/31 04:19:28;;;;;;;10.13;5.23;;;6.00;99.90;;;;;;10506442;28;20697;-81
2022/01/31 04:24:33;;;;;;;8.43;5.40;;;5.90;99.80;;;;;;10499075;28;20664;-82
2022/01/31 04:29:40;;;;;;;8.03;5.23;;;5.90;99.90;;;;;;10501247;28;20242;-82
2022/01/31 04:34:42;;;;;;;8.80;5.73;;;5.80;99.90;;;;;;10488659;28;20197;-82
2022/01/31 04:39:45;;;;;;;14.13;5.40;;;5.80;99.90;;;;;;10504283;28;20217;-81
2022/01/31 04:44:48;;;;;;;9.33;4.87;;;5.80;99.90;;;;;;10486509;28;20209;-81
2022/01/31 04:49:51;;;;;;;9.90;4.40;;;5.90;99.90;;;;;;10503591;28;20612;-80
2022/01/31 04:54:55;;;;;;;6.93;5.07;;;5.80;99.90;;;;;;10505752;28;20192;-82
2022/01/31 04:59:57;;;;;;;8.83;4.37;;;5.90;99.90;;;;;;10505443;28;20217;-81
2022/01/31 05:04:59;;;;;;;10.23;4.83;;;5.90;99.90;;;;;;10514008;28;20218;-80
2022/01/31 05:10:02;;;;;;;7.37;4.30;;;6.00;99.90;;;;;;10480621;28;20217;-80
2022/01/31 05:15:05;;;;;;;8.80;5.20;;;5.90;99.60;;;;;;10462406;28;20219;-82
2022/01/31 05:20:08;;;;;;;8.27;4.60;;;5.90;99.70;;;;;;10487761;28;20258;-83
2022/01/31 05:25:11;;;;;;;7.53;4.80;;;5.90;99.50;;;;;;10496630;28;20231;-83
2022/01/31 05:30:16;;;;;;;8.90;4.70;;;5.90;99.90;;;;;;10485856;28;20216;-81
2022/01/31 05:35:18;;;;;;;9.30;4.87;;;6.00;99.60;;;;;;10493204;28;20192;-82
2022/01/31 05:40:21;;;;;;;7.63;4.97;;;6.00;99.90;;;;;;10493580;28;20216;-81
2022/01/31 05:45:24;;;;;;;6.90;5.00;;;6.00;99.90;;;;;;10483723;28;20274;-82
2022/01/31 05:50:26;;;;;;;8.00;4.17;;;6.00;99.90;;;;;;10492224;28;20204;-81
2022/01/31 05:55:29;;;;;;;8.33;4.43;;;6.20;99.90;;;;;;10491565;28;20196;-81
2022/01/31 06:00:31;;;;;;;6.80;4.57;;;6.20;99.90;;;;;;10495612;28;20220;-82
2022/01/31 06:05:33;;;;;;;7.50;3.77;;;6.20;99.90;;;;;;10459533;28;20189;-83
2022/01/31 06:10:42;;;;;;;7.37;4.40;;;6.40;99.90;;;;;;10444992;28;20221;-83
2022/01/31 06:15:44;;;;;;;14.87;5.63;;;6.50;99.90;;;;;;10460241;28;20227;-83
2022/01/31 06:20:46;;;;;;;7.07;4.87;;;6.50;99.90;;;;;;10465316;28;20196;-81
2022/01/31 06:25:49;;;;;;;11.77;5.20;;;6.40;99.90;;;;;;10463742;28;20722;-81
2022/01/31 06:30:52;;;;;;;10.57;5.27;;;6.30;99.90;;;;;;10445261;28;20224;-83
2022/01/31 06:35:54;;;;;;;12.03;5.40;;;6.10;99.90;;;;;;10470166;28;20224;-81
2022/01/31 06:40:57;;;;;;;11.13;6.57;;;5.90;99.90;;;;;;10498114;28;20288;-80
2022/01/31 06:45:59;;;;;;;14.73;7.60;;;5.70;99.90;;;;;;10466522;28;20214;-80
2022/01/31 06:51:01;;;;;;;11.23;8.33;;;5.50;99.90;;;;;;10458666;28;20303;-81
2022/01/31 06:56:05;;;;;;;11.67;8.37;;;5.40;99.90;;;;;;10485940;28;20229;-81
2022/01/31 07:01:08;;;;;;;14.23;9.00;;;5.20;99.90;;;;;;10494719;28;20197;-81
2022/01/31 07:06:11;;;;;;;9.77;8.80;;;5.20;99.90;;;;;;10492194;28;20306;-80
2022/01/31 07:11:20;;;;;;;8.60;7.70;;;5.10;99.90;;;;;;10459545;28;20256;-80
2022/01/31 07:16:22;;;;;;;10.97;8.90;;;5.10;99.90;;;;;;10482760;28;20247;-80
2022/01/31 07:21:32;;;;;;;15.00;9.43;;;5.20;99.90;;;;;;10474439;28;20201;-82
2022/01/31 07:26:36;;;;;;;8.30;6.77;;;5.30;99.90;;;;;;10496708;28;20228;-80
2022/01/31 07:31:38;;;;;;;12.57;8.70;;;5.30;99.90;;;;;;10494029;28;20221;-81
2022/01/31 07:36:40;;;;;;;11.03;9.10;;;5.30;99.90;;;;;;10474124;28;20221;-79
2022/01/31 07:41:45;;;;;;;7.03;6.40;;;5.30;99.90;;;;;;10487372;28;20189;-79
2022/01/31 07:46:49;;;;;;;12.53;7.83;;;5.30;99.90;;;;;;10485706;28;20253;-79
2022/01/31 07:51:52;;;;;;;8.27;7.57;;;5.30;99.90;;;;;;10498265;28;20684;-81
2022/01/31 07:56:58;;;;;;;7.90;7.20;;;5.40;99.90;;;;;;10511286;22;20241;-79
2022/01/31 08:02:00;;;;;;;7.33;6.77;;;5.40;99.90;;;;;;10453725;28;21002;-77
2022/01/31 08:07:02;;;;;;;7.57;5.97;;;5.40;99.90;;;;;;10451276;28;20220;-77
2022/01/31 08:12:07;;;;;;;6.43;5.93;;;5.40;99.90;;;;;;10436865;28;20218;-77
2022/01/31 08:17:09;;;;;;;5.80;5.40;;;5.40;99.90;;;;;;10453313;28;20226;-77
2022/01/31 08:22:11;;;;;;;5.27;4.33;;;5.50;99.90;;;;;;10439073;28;20245;-77
2022/01/31 08:27:15;;;;;;;6.30;5.70;;;5.50;99.90;;;;;;10435878;28;20276;-77
2022/01/31 08:32:22;;;;;;;4.83;4.53;;;5.60;99.90;;;;;;10445435;28;20218;-77
2022/01/31 08:37:26;;;;;;;5.90;5.50;;;5.70;99.90;;;;;;10452923;28;20309;-77
2022/01/31 08:42:30;;;;;;;4.93;3.87;;;5.70;99.90;;;;;;10449641;28;20190;-77
2022/01/31 08:47:32;;;;;;;4.60;4.30;;;5.80;99.90;;;;;;10452546;28;20299;-77
2022/01/31 08:52:34;;;;;;;4.83;4.47;;;5.80;99.90;;;;;;10453142;28;20249;-78
2022/01/31 08:57:38;;;;;;;3.47;3.37;;;5.90;99.90;;;;;;10448807;28;20595;-78
2022/01/31 09:02:48;;;;;;;2.97;2.87;;;6.00;99.90;;;;;;10451405;28;20225;-78
2022/01/31 09:07:50;;;;;;;3.57;3.47;;;6.10;99.90;;;;;;10446418;28;20218;-77
2022/01/31 09:12:54;;;;;;;3.87;3.57;;;6.20;99.90;;;;;;10457369;28;20641;-78
2022/01/31 09:17:56;;;;;;;4.00;3.80;;;6.30;99.90;;;;;;10454553;28;20594;-78
2022/01/31 09:22:58;;;;;;;3.87;3.67;;;6.40;99.90;;;;;;10438709;28;20677;-79
2022/01/31 09:28:03;;;;;;;6.97;2.90;;;6.40;99.90;;;;;;10449552;28;20229;-78
2022/01/31 09:33:06;;;;;;;4.23;3.83;;;6.50;99.90;;;;;;10458025;28;20657;-78
2022/01/31 09:38:11;;;;;;;4.10;3.80;;;6.70;99.90;;;;;;10459400;28;20220;-78
2022/01/31 09:43:54;;;;;;;4.50;4.07;;;6.90;99.90;;;;;;10458714;28;20252;-79
2022/01/31 09:48:57;;;;;;;3.37;3.07;;;7.00;99.90;;;;;;10457209;28;20217;-79
2022/01/31 09:54:01;;;;;;;3.77;3.57;;;7.00;99.90;;;;;;10457447;28;20271;-78
2022/01/31 09:59:06;;;;;;;6.53;3.90;;;7.20;99.90;;;;;;10458651;28;20284;-78
2022/01/31 10:04:14;;;;;;;3.70;3.43;;;7.30;99.90;;;;;;10438683;28;20650;-79
2022/01/31 10:09:18;;;;;;;4.70;2.80;;;7.30;99.90;;;;;;10442760;28;20591;-79
2022/01/31 10:19:55;;;;;;;4.07;2.67;;;7.30;99.90;;;;;;10427670;28;20232;-77
2022/01/31 10:25:00;;;;;;;3.70;3.20;;;7.30;99.90;;;;;;10428818;28;20276;-78
2022/01/31 10:30:10;;;;;;;3.17;2.97;;;7.30;99.90;;;;;;10400711;28;20224;-77
2022/01/31 10:35:15;;;;;;;3.47;2.83;;;7.40;99.90;;;;;;10425272;28;20582;-77
2022/01/31 10:45:53;;;;;;;2.63;2.43;;;7.50;99.90;;;;;;10439069;28;20212;-77
2022/01/31 10:56:17;;;;;;;2.83;2.17;;;7.60;99.90;;;;;;10449991;28;20710;-77
2022/01/31 11:01:21;;;;;;;2.50;2.30;;;7.60;99.90;;;;;;10453625;28;20250;-77
2022/01/31 11:06:24;;;;;;;3.37;2.23;;;7.70;99.90;;;;;;10448105;28;20213;-77
2022/01/31 11:11:26;;;;;;;5.10;2.40;;;7.70;99.90;;;;;;10456756;28;20209;-77
2022/01/31 11:16:30;;;;;;;5.80;2.63;;;7.80;99.90;;;;;;10450913;28;20308;-77
2022/01/31 11:21:35;;;;;;;3.50;2.20;;;7.80;99.90;;;;;;10443674;28;20189;-77
2022/01/31 11:26:39;;;;;;;3.03;2.03;;;7.90;99.90;;;;;;10452517;28;20225;-77
2022/01/31 11:31:43;;;;;;;4.40;2.40;;;8.00;99.90;;;;;;10450389;28;20601;-77
2022/01/31 11:36:47;;;;;;;4.03;2.30;;;8.00;99.90;;;;;;10452498;28;20255;-77
2022/01/31 11:41:55;;;;;;;2.40;1.73;;;8.00;99.90;;;;;;10442102;28;20197;-77
2022/01/31 11:47:02;;;;;;;3.90;2.80;;;8.00;99.90;;;;;;10457419;28;20279;-77
2022/01/31 11:52:07;;;;;;;5.23;2.70;;;8.00;99.90;;;;;;10451520;28;20676;-77
2022/01/31 11:57:14;;;;;;;2.60;2.00;;;7.80;99.90;;;;;;10431504;28;20229;-77
2022/01/31 12:02:20;;;;;;;2.47;2.20;;;7.70;99.90;;;;;;10421545;28;20703;-77
2022/01/31 12:07:36;;;;;;;3.37;2.40;;;7.60;99.90;;;;;;10426266;28;20222;-77
2022/01/31 12:12:49;;;;;;;3.73;3.37;;;7.60;99.90;;;;;;10423416;28;20697;-77
2022/01/31 12:18:05;;;;;;;4.70;2.20;;;7.50;99.90;;;;;;10425024;28;20224;-78
2022/01/31 12:23:23;;;;;;;7.83;2.63;;;7.40;99.90;;;;;;10401831;28;20225;-78
2022/01/31 12:28:36;;;;;;;2.70;1.70;;;7.40;99.90;;;;;;10417977;28;20220;-77
2022/01/31 12:33:43;;;;;;;2.03;1.93;;;7.50;99.90;;;;;;10414175;28;20685;-77
2022/01/31 12:38:45;;;;;;;2.40;2.07;;;7.60;99.90;;;;;;10451326;28;20335;-77
2022/01/31 12:43:51;;;;;;;2.43;1.77;;;7.60;99.90;;;;;;10445661;28;20197;-77
2022/01/31 12:49:12;;;;;;;3.83;1.97;;;7.60;99.90;;;;;;10451253;28;20227;-77
2022/01/31 12:54:21;;;;;;;3.40;1.83;;;7.60;99.90;;;;;;10451357;28;20213;-77
2022/01/31 12:59:23;;;;;;;2.57;2.37;;;7.60;99.90;;;;;;10445396;28;20233;-77
2022/01/31 13:04:28;;;;;;;2.73;2.10;;;7.50;99.90;;;;;;10445202;28;20909;-77
2022/01/31 13:09:32;;;;;;;4.03;2.40;;;7.40;99.90;;;;;;10445100;28;20678;-77
2022/01/31 13:14:36;;;;;;;5.53;2.50;;;7.40;99.90;;;;;;10439138;28;20263;-77
2022/01/31 13:19:41;;;;;;;3.60;2.50;;;7.40;99.90;;;;;;10427201;28;20289;-78
2022/01/31 13:24:45;;;;;;;2.33;2.13;;;7.40;99.90;;;;;;10424696;28;20202;-77
2022/01/31 13:29:48;;;;;;;2.17;1.97;;;7.40;99.90;;;;;;10429571;28;20229;-78
2022/01/31 13:34:56;;;;;;;2.60;2.10;;;7.30;99.90;;;;;;10434456;28;20368;-77
2022/01/31 13:40:02;;;;;;;4.03;2.30;;;7.30;99.90;;;;;;10446072;28;20260;-77
2022/01/31 13:45:11;;;;;;;6.87;2.10;;;7.20;99.90;;;;;;10445303;28;20239;-77
2022/01/31 13:50:26;;;;;;;4.07;2.40;;;7.20;99.90;;;;;;10451657;28;20606;-77
2022/01/31 13:55:29;;;;;;;3.83;1.60;;;7.20;99.90;;;;;;10449271;28;20677;-78
2022/01/31 14:00:36;;;;;;;3.90;2.00;;;7.20;99.90;;;;;;10448053;28;20233;-77
2022/01/31 14:05:47;;;;;;;3.90;1.70;;;7.30;99.90;;;;;;10448546;28;20204;-77
2022/01/31 14:10:50;;;;;;;2.80;2.27;;;7.30;99.90;;;;;;10448897;28;20209;-78
2022/01/31 14:15:52;;;;;;;4.73;2.13;;;7.30;99.90;;;;;;10442984;28;20223;-77
2022/01/31 14:20:56;;;;;;;2.93;2.33;;;7.20;99.90;;;;;;10434729;28;20665;-77
2022/01/31 14:25:58;;;;;;;2.63;2.00;;;7.10;99.90;;;;;;10444267;28;20217;-77
2022/01/31 14:31:00;;;;;;;3.80;2.13;;;7.10;99.90;;;;;;10440741;28;20601;-77
2022/01/31 14:36:06;;;;;;;2.87;2.10;;;7.10;99.90;;;;;;10431139;28;20221;-77
2022/01/31 14:41:24;;;;;;;3.30;1.80;;;7.10;99.90;;;;;;10450272;28;20209;-77
2022/01/31 14:51:51;;;;;;;5.63;2.00;;;7.10;99.90;;;;;;10445971;28;20693;-78
2022/01/31 14:56:53;;;;;;;4.17;2.10;;;7.20;99.90;;;;;;10448012;28;20236;-78
2022/01/31 15:01:55;;;;;;;4.80;2.57;;;7.20;99.90;;;;;;10447915;28;20205;-77
2022/01/31 15:06:59;;;;;;;2.50;2.00;;;7.10;99.90;;;;;;10449617;28;20780;-77
2022/01/31 15:12:01;;;;;;;3.43;2.60;;;7.00;99.90;;;;;;10443687;28;20228;-77
2022/01/31 15:17:06;;;;;;;5.33;2.73;;;6.80;99.90;;;;;;10436159;28;20231;-78
2022/01/31 15:22:10;;;;;;;4.63;2.57;;;6.60;99.90;;;;;;10447318;28;20358;-77
2022/01/31 15:27:13;;;;;;;4.80;2.60;;;6.50;99.90;;;;;;10437942;28;20701;-78
2022/01/31 15:32:15;;;;;;;3.40;2.70;;;6.50;99.90;;;;;;10433947;28;20209;-77
2022/01/31 15:37:18;;;;;;;5.40;2.83;;;6.40;99.90;;;;;;10439506;28;20575;-78
2022/01/31 15:42:20;;;;;;;5.87;2.63;;;6.30;99.90;;;;;;10438132;28;20279;-77
2022/01/31 15:47:23;;;;;;;6.80;2.90;;;6.30;99.90;;;;;;10437067;28;20239;-77
2022/01/31 15:52:26;;;;;;;6.67;2.90;;;6.20;99.90;;;;;;10440252;28;20256;-78
2022/01/31 15:57:28;;;;;;;3.27;2.70;;;6.20;99.90;;;;;;10439426;28;20328;-77
2022/01/31 16:02:31;;;;;;;10.03;3.00;;;6.10;99.90;;;;;;10435442;28;20286;-77
2022/01/31 16:07:34;;;;;;;3.40;2.63;;;6.20;99.90;;;;;;10436335;28;20228;-77
2022/01/31 16:12:37;;;;;;;5.67;2.70;;;6.20;99.90;;;;;;10435728;28;20728;-77
2022/01/31 16:17:40;;;;;;;7.73;2.30;;;6.10;99.90;;;;;;10433663;28;20224;-77
2022/01/31 16:22:43;;;;;;;5.40;2.70;;;6.10;99.90;;;;;;10436726;28;20233;-78
2022/01/31 16:27:46;;;;;;;5.13;2.53;;;6.00;99.90;;;;;;10436863;28;20213;-77
2022/01/31 16:32:50;;;;;;;7.60;3.27;;;6.10;99.90;;;;;;10432177;28;20225;-77
2022/01/31 16:37:53;;;;;;;5.27;2.80;;;6.10;99.90;;;;;;10421092;28;20243;-77
2022/01/31 16:42:55;;;;;;;5.70;2.77;;;6.10;99.90;;;;;;10436630;28;20819;-76
2022/01/31 16:47:57;;;;;;;5.17;2.50;;;6.20;99.90;;;;;;10450575;28;20422;-77
2022/01/31 16:53:02;;;;;;;6.17;2.77;;;6.20;99.90;;;;;;10432458;28;20206;-77
2022/01/31 16:58:05;;;;;;;8.93;3.30;;;6.20;99.90;;;;;;10447846;28;20308;-77
2022/01/31 17:03:09;;;;;;;6.27;2.80;;;6.30;99.90;;;;;;10445882;28;20288;-76
2022/01/31 17:08:13;;;;;;;4.70;2.80;;;6.30;99.90;;;;;;10407884;28;20230;-77
2022/01/31 17:13:16;;;;;;;8.20;2.77;;;6.40;99.90;;;;;;10438927;28;20241;-76
2022/01/31 17:18:18;;;;;;;5.53;3.00;;;6.40;99.90;;;;;;10413660;28;20214;-78
2022/01/31 17:23:22;;;;;;;7.40;2.80;;;6.50;99.90;;;;;;10394534;28;20213;-77
2022/01/31 17:28:24;;;;;;;7.93;2.90;;;6.60;99.90;;;;;;10394818;28;20233;-77
2022/01/31 17:33:27;;;;;;;5.57;3.03;;;6.60;99.90;;;;;;10409493;28;20232;-76
2022/01/31 17:38:30;;;;;;;4.00;2.33;;;6.60;99.90;;;;;;10415215;28;20300;-78
2022/01/31 17:43:33;;;;;;;3.20;2.30;;;6.70;99.90;;;;;;10437067;28;20193;-76
2022/01/31 17:48:35;;;;;;;3.30;2.40;;;6.70;99.90;;;;;;10426891;28;20892;-77
2022/01/31 17:53:39;;;;;;;2.93;2.60;;;6.70;99.90;;;;;;10417743;28;20656;-77
2022/01/31 17:58:41;;;;;;;5.27;2.43;;;6.70;99.90;;;;;;10413094;28;20225;-77
2022/01/31 18:03:43;;;;;;;7.30;2.57;;;6.80;99.90;;;;;;10422364;28;20193;-77
2022/01/31 18:08:46;;;;;;;6.73;3.00;;;6.80;99.90;;;;;;10426761;28;20654;-77
2022/01/31 18:13:48;;;;;;;5.63;2.40;;;6.80;99.90;;;;;;10452958;28;20202;-77
2022/01/31 18:18:50;;;;;;;5.23;2.70;;;6.80;99.90;;;;;;10442911;28;20236;-77
2022/01/31 18:23:54;;;;;;;5.13;2.63;;;6.70;99.90;;;;;;10426752;28;20280;-78
2022/01/31 18:28:57;;;;;;;5.97;2.17;;;6.70;99.90;;;;;;10432227;28;20323;-78
2022/01/31 18:33:59;;;;;;;9.37;3.07;;;6.70;99.90;;;;;;10438363;28;20224;-78
2022/01/31 18:39:02;;;;;;;4.37;2.93;;;6.70;99.90;;;;;;10431933;28;20697;-78
2022/01/31 18:44:10;;;;;;;4.57;2.73;;;6.60;99.90;;;;;;10441850;28;20197;-78
2022/01/31 18:49:12;;;;;;;6.30;2.57;;;6.60;99.90;;;;;;10431195;28;20248;-77
2022/01/31 18:54:16;;;;;;;6.03;3.10;;;6.60;99.90;;;;;;10435468;28;20587;-77
2022/01/31 18:59:19;;;;;;;5.40;2.80;;;6.50;99.90;;;;;;10415421;28;20723;-78
2022/01/31 19:04:22;;;;;;;6.77;3.17;;;6.40;99.90;;;;;;10429034;28;20208;-77
2022/01/31 19:09:29;;;;;;;4.30;3.23;;;6.40;99.90;;;;;;10436985;28;20240;-78
2022/01/31 19:19:50;;;;;;;4.73;2.13;;;6.40;99.90;;;;;;10439291;28;20309;-78
2022/01/31 19:24:54;;;;;;;2.77;2.43;;;6.40;99.90;;;;;;10431287;28;20255;-78
2022/01/31 19:29:56;;;;;;;4.63;2.97;;;6.20;99.90;;;;;;10430889;28;20287;-78
2022/01/31 19:34:58;;;;;;;6.80;3.50;;;6.20;99.90;;;;;;10433978;28;20211;-78
2022/01/31 19:45:21;;;;;;;4.93;2.80;;;6.20;99.90;;;;;;10391756;28;20273;-77
2022/01/31 19:50:25;;;;;;;6.73;2.73;;;6.20;99.90;;;;;;10418725;28;20312;-77
2022/01/31 19:55:28;;;;;;;3.10;2.43;;;6.20;99.90;;;;;;10443991;28;20225;-77
2022/01/31 20:00:30;;;;;;;4.93;3.30;;;6.20;99.90;;;;;;10556959;22;20235;-78
2022/01/31 20:05:32;;;;;;;6.50;2.87;;;6.20;99.90;;;;;;10547626;28;20289;-79
2022/01/31 20:10:38;;;;;;;5.70;2.50;;;6.30;99.90;;;;;;10534205;28;20314;-79
2022/01/31 20:15:41;;;;;;;4.30;2.40;;;6.40;99.90;;;;;;10539118;28;20251;-78
2022/01/31 20:20:46;;;;;;;3.50;2.50;;;6.40;99.90;;;;;;10519235;28;20219;-78
2022/01/31 20:25:51;;;;;;;4.20;2.80;;;6.40;99.90;;;;;;10508842;28;20215;-78
2022/01/31 20:30:58;;;;;;;5.30;3.60;;;6.30;99.90;;;;;;10540342;28;20242;-78
2022/01/31 20:36:02;;;;;;;4.37;2.80;;;6.20;99.90;;;;;;10532604;28;20306;-79
2022/01/31 20:41:14;;;;;;;4.03;1.77;;;6.20;99.90;;;;;;10539742;28;20218;-79
2022/01/31 20:46:18;;;;;;;4.73;3.30;;;6.20;99.90;;;;;;10537676;28;20730;-79
2022/01/31 20:51:20;;;;;;;3.30;2.60;;;6.20;99.90;;;;;;10545048;28;20297;-78
2022/01/31 20:56:25;;;;;;;3.50;3.10;;;6.20;99.90;;;;;;10542952;28;20224;-79
2022/01/31 21:01:28;;;;;;;2.90;2.40;;;6.20;99.90;;;;;;10513887;28;20204;-78
2022/01/31 21:06:30;;;;;;;4.77;3.23;;;6.20;99.90;;;;;;10529881;28;20282;-78
2022/01/31 21:11:34;;;;;;;3.80;2.40;;;6.20;99.90;;;;;;10542953;28;20559;-80
2022/01/31 21:16:37;;;;;;;5.30;3.00;;;6.20;99.90;;;;;;10521670;28;20263;-80
2022/01/31 21:21:39;;;;;;;2.80;2.60;;;6.20;99.90;;;;;;10542117;28;20226;-80
2022/01/31 21:26:43;;;;;;;4.10;2.40;;;6.20;99.90;;;;;;10534484;28;20246;-80
2022/01/31 21:31:45;;;;;;;3.20;2.00;;;6.20;99.90;;;;;;10521344;28;20204;-80
2022/01/31 21:36:47;;;;;;;6.93;2.57;;;6.10;99.90;;;;;;10541371;28;20230;-80
2022/01/31 21:41:51;;;;;;;3.03;2.30;;;6.10;99.90;;;;;;10541097;28;20310;-81
2022/01/31 21:46:53;;;;;;;3.63;2.67;;;6.10;99.90;;;;;;10537995;28;20211;-81
2022/01/31 21:51:57;;;;;;;3.97;2.47;;;6.10;99.90;;;;;;10538813;28;20204;-82
2022/01/31 21:57:00;;;;;;;3.63;2.17;;;6.10;99.90;;;;;;10539524;28;20648;-80
2022/01/31 22:02:02;;;;;;;2.47;2.20;;;6.10;99.90;;;;;;10542373;28;20250;-80
2022/01/31 22:07:05;;;;;;;3.43;2.47;;;6.00;99.90;;;;;;10542852;28;20703;-79
2022/01/31 22:12:10;;;;;;;4.63;2.87;;;5.90;99.90;;;;;;10543012;28;20207;-80
2022/01/31 22:17:12;;;;;;;3.57;2.50;;;5.90;99.90;;;;;;10535442;28;20227;-81
2022/01/31 22:22:14;;;;;;;3.77;2.40;;;5.90;99.90;;;;;;10537156;28;20200;-81
2022/01/31 22:27:18;;;;;;;3.63;2.60;;;5.90;99.90;;;;;;10542726;28;20247;-81
2022/01/31 22:32:20;;;;;;;3.37;2.20;;;5.90;99.90;;;;;;10527411;28;20216;-81
2022/01/31 22:37:22;;;;;;;4.60;2.93;;;5.90;99.90;;;;;;10527396;28;20227;-80
2022/01/31 22:42:26;;;;;;;2.83;2.43;;;5.90;99.90;;;;;;10536040;28;20217;-80
2022/01/31 22:47:29;;;;;;;4.60;2.97;;;5.90;99.90;;;;;;10534524;28;20299;-80
2022/01/31 22:52:31;;;;;;;3.13;2.70;;;5.90;99.90;;;;;;10540776;28;20200;-81
2022/01/31 22:57:35;;;;;;;3.47;2.10;;;6.00;99.90;;;;;;10524264;28;20263;-80
2022/01/31 23:02:37;;;;;;;3.63;2.50;;;6.00;99.90;;;;;;10543954;28;20234;-80
2022/01/31 23:07:39;;;;;;;3.03;2.37;;;6.10;99.90;;;;;;10544096;28;20208;-80
2022/01/31 23:12:44;;;;;;;3.57;2.73;;;6.20;99.90;;;;;;10536863;28;20245;-80
2022/01/31 23:17:53;;;;;;;5.10;2.70;;;6.10;99.90;;;;;;10530475;28;20268;-80
2022/01/31 23:42:11;;;;;;;2.77;2.33;;;6.10;99.90;;;;;;10539316;28;20231;-80
2022/01/31 23:55:25;;;;;;;2.67;2.47;;;6.30;99.90;;;;;;10506599;28;20293;-79
